QTR8W OTHH-OOMS
Flight info
| Callsign | QTR8W |
|---|---|
| Flight time | N/A |
| Altitude | 33000 |
| Route | BUNDU3E/34R BUNDU B415 RURAL N685 LAKLU G216 MCT |
| Aircraft | A320/M-SDE3FGHIRWY/LB1 |
Departure
| Time | 2026-02-17 15:25 |
|---|---|
| Airport | Hamad International Airport (OTHH) |
Arrival
| Time | N/A |
|---|---|
| Airport | Muscat International Airport (OOMS) |
| Time | Latitude | Longitude | Altitude | Speed | Heading |
|---|---|---|---|---|---|
| 2026-02-17 14:38 | 25.26306 | 51.61594 | 30 ft | 0 kts | 159° |
| 2026-02-17 14:38 | 25.26314 | 51.61590 | 30 ft | 0 kts | 159° |
| 2026-02-17 15:11 | 25.26316 | 51.61589 | 30 ft | 1 kts | 159° |
| 2026-02-17 15:12 | 25.26333 | 51.61583 | 30 ft | 3 kts | 159° |
| 2026-02-17 15:12 | 25.26352 | 51.61574 | 30 ft | 3 kts | 159° |
| 2026-02-17 15:12 | 25.26370 | 51.61566 | 30 ft | 3 kts | 159° |
| 2026-02-17 15:12 | 25.26389 | 51.61558 | 30 ft | 3 kts | 148° |
| 2026-02-17 15:13 | 25.26402 | 51.61546 | 30 ft | 3 kts | 104° |
| 2026-02-17 15:13 | 25.26402 | 51.61533 | 30 ft | 1 kts | 68° |
| 2026-02-17 15:13 | 25.26397 | 51.61518 | 30 ft | 2 kts | 68° |
| 2026-02-17 15:13 | 25.26395 | 51.61514 | 30 ft | 0 kts | 68° |
| 2026-02-17 15:16 | 25.26397 | 51.61518 | 30 ft | 2 kts | 68° |
| 2026-02-17 15:16 | 25.26397 | 51.61520 | 30 ft | 0 kts | 68° |
| 2026-02-17 15:18 | 25.26402 | 51.61531 | 30 ft | 3 kts | 68° |
| 2026-02-17 15:18 | 25.26413 | 51.61563 | 30 ft | 6 kts | 68° |
| 2026-02-17 15:19 | 25.26458 | 51.61687 | 30 ft | 12 kts | 68° |
| 2026-02-17 15:19 | 25.26492 | 51.61781 | 30 ft | 15 kts | 68° |
| 2026-02-17 15:19 | 25.26529 | 51.61883 | 30 ft | 14 kts | 68° |
| 2026-02-17 15:19 | 25.26499 | 51.61947 | 29 ft | 11 kts | 152° |
| 2026-02-17 15:20 | 25.26419 | 51.61983 | 30 ft | 13 kts | 158° |
| 2026-02-17 15:20 | 25.26325 | 51.62025 | 30 ft | 16 kts | 158° |
| 2026-02-17 15:20 | 25.26216 | 51.62073 | 30 ft | 18 kts | 158° |
| 2026-02-17 15:20 | 25.26093 | 51.62128 | 30 ft | 20 kts | 158° |
| 2026-02-17 15:21 | 25.25954 | 51.62190 | 30 ft | 23 kts | 159° |
| 2026-02-17 15:21 | 25.25797 | 51.62257 | 30 ft | 25 kts | 158° |
| 2026-02-17 15:21 | 25.25655 | 51.62320 | 30 ft | 19 kts | 158° |
| 2026-02-17 15:21 | 25.25531 | 51.62375 | 29 ft | 16 kts | 158° |
| 2026-02-17 15:22 | 25.25475 | 51.62432 | 29 ft | 11 kts | 93° |
| 2026-02-17 15:22 | 25.25502 | 51.62521 | 28 ft | 13 kts | 68° |
| 2026-02-17 15:22 | 25.25512 | 51.62548 | 28 ft | 0 kts | 68° |
| 2026-02-17 15:23 | 25.25512 | 51.62549 | 28 ft | 1 kts | 68° |
| 2026-02-17 15:23 | 25.25520 | 51.62569 | 27 ft | 5 kts | 65° |
| 2026-02-17 15:23 | 25.25552 | 51.62609 | 27 ft | 9 kts | 37° |
| 2026-02-17 15:24 | 25.25620 | 51.62635 | 27 ft | 11 kts | 4° |
| 2026-02-17 15:24 | 25.25676 | 51.62620 | 27 ft | 0 kts | 339° |
| 2026-02-17 15:24 | 25.25683 | 51.62617 | 26 ft | 9 kts | 339° |
| 2026-02-17 15:24 | 25.25974 | 51.62489 | 27 ft | 82 kts | 338° |
| 2026-02-17 15:25 | 25.26693 | 51.62173 | 24 ft | 138 kts | 338° |
| 2026-02-17 15:25 | 25.27674 | 51.61738 | 360 ft | 155 kts | 340° |
| 2026-02-17 15:25 | 25.28684 | 51.61302 | 982 ft | 157 kts | 340° |
| 2026-02-17 15:25 | 25.29717 | 51.60854 | 1562 ft | 166 kts | 340° |
| 2026-02-17 15:26 | 25.30864 | 51.60352 | 1893 ft | 188 kts | 340° |
| 2026-02-17 15:26 | 25.32137 | 51.59792 | 2213 ft | 211 kts | 340° |
| 2026-02-17 15:26 | 25.33549 | 51.59219 | 2760 ft | 220 kts | 350° |
| 2026-02-17 15:27 | 25.35983 | 51.60715 | 4267 ft | 220 kts | 69° |
| 2026-02-17 15:27 | 25.36284 | 51.62370 | 5122 ft | 223 kts | 83° |
| 2026-02-17 15:27 | 25.36003 | 51.64153 | 5518 ft | 253 kts | 110° |
| 2026-02-17 15:27 | 25.35223 | 51.65997 | 6091 ft | 271 kts | 111° |
| 2026-02-17 15:28 | 25.34424 | 51.67911 | 6919 ft | 277 kts | 110° |
| 2026-02-17 15:28 | 25.33617 | 51.69861 | 7755 ft | 281 kts | 110° |
| 2026-02-17 15:28 | 25.32801 | 51.71844 | 8595 ft | 285 kts | 110° |
| 2026-02-17 15:28 | 25.31974 | 51.73858 | 9397 ft | 290 kts | 110° |
| 2026-02-17 15:29 | 25.31134 | 51.75907 | 10156 ft | 296 kts | 110° |
| 2026-02-17 15:29 | 25.30248 | 51.78071 | 10391 ft | 320 kts | 110° |
| 2026-02-17 15:29 | 25.29301 | 51.80380 | 10717 ft | 337 kts | 110° |
| 2026-02-17 15:29 | 25.28317 | 51.82758 | 11326 ft | 343 kts | 110° |
| 2026-02-17 15:30 | 25.27328 | 51.85134 | 11992 ft | 347 kts | 110° |
| 2026-02-17 15:30 | 25.26313 | 51.87572 | 12667 ft | 351 kts | 110° |
| 2026-02-17 15:30 | 25.25280 | 51.90061 | 13349 ft | 354 kts | 110° |
| 2026-02-17 15:31 | 25.23203 | 51.95065 | 14593 ft | 362 kts | 110° |
| 2026-02-17 15:31 | 25.22151 | 51.97602 | 15183 ft | 365 kts | 110° |
| 2026-02-17 15:31 | 25.21102 | 52.00130 | 15771 ft | 369 kts | 110° |
| 2026-02-17 15:31 | 25.20026 | 52.02719 | 16351 ft | 373 kts | 110° |
| 2026-02-17 15:32 | 25.18926 | 52.05361 | 16971 ft | 376 kts | 110° |
| 2026-02-17 15:32 | 25.17825 | 52.08001 | 17545 ft | 381 kts | 110° |
| 2026-02-17 15:32 | 25.16710 | 52.10674 | 18133 ft | 385 kts | 110° |
| 2026-02-17 15:32 | 25.15586 | 52.13365 | 18675 ft | 389 kts | 110° |
| 2026-02-17 15:33 | 25.14460 | 52.16057 | 19189 ft | 392 kts | 110° |
| 2026-02-17 15:33 | 25.13313 | 52.18807 | 19704 ft | 396 kts | 111° |
| 2026-02-17 15:33 | 25.12156 | 52.21582 | 20207 ft | 400 kts | 111° |
| 2026-02-17 15:33 | 25.10989 | 52.24382 | 20726 ft | 403 kts | 111° |
| 2026-02-17 15:34 | 25.09809 | 52.27206 | 21213 ft | 407 kts | 112° |
| 2026-02-17 15:34 | 25.08614 | 52.30057 | 21708 ft | 410 kts | 112° |
| 2026-02-17 15:34 | 25.07411 | 52.32925 | 22184 ft | 414 kts | 112° |
| 2026-02-17 15:35 | 25.04975 | 52.38731 | 23133 ft | 420 kts | 113° |
| 2026-02-17 15:35 | 25.03743 | 52.41669 | 23577 ft | 424 kts | 113° |
| 2026-02-17 15:35 | 25.02502 | 52.44629 | 23947 ft | 427 kts | 113° |
| 2026-02-17 15:35 | 25.01251 | 52.47614 | 24320 ft | 429 kts | 113° |
| 2026-02-17 15:36 | 25.00168 | 52.50677 | 24693 ft | 430 kts | 107° |
| 2026-02-17 15:36 | 24.99241 | 52.53815 | 25066 ft | 431 kts | 107° |
| 2026-02-17 15:36 | 24.98308 | 52.56965 | 25434 ft | 433 kts | 107° |
| 2026-02-17 15:36 | 24.97368 | 52.60126 | 25795 ft | 435 kts | 107° |
| 2026-02-17 15:37 | 24.96423 | 52.63300 | 26157 ft | 437 kts | 107° |
| 2026-02-17 15:37 | 24.95475 | 52.66479 | 26498 ft | 439 kts | 107° |
| 2026-02-17 15:37 | 24.94540 | 52.69686 | 26827 ft | 440 kts | 106° |
| 2026-02-17 15:37 | 24.93685 | 52.72934 | 27162 ft | 442 kts | 105° |
| 2026-02-17 15:38 | 24.92893 | 52.76215 | 27479 ft | 444 kts | 103° |
| 2026-02-17 15:38 | 24.92144 | 52.79477 | 27799 ft | 446 kts | 103° |
| 2026-02-17 15:38 | 24.91388 | 52.82791 | 28120 ft | 448 kts | 104° |
| 2026-02-17 15:39 | 24.89820 | 52.89455 | 28781 ft | 451 kts | 105° |
| 2026-02-17 15:39 | 24.89003 | 52.92807 | 29107 ft | 453 kts | 105° |
| 2026-02-17 15:39 | 24.88177 | 52.96161 | 29447 ft | 455 kts | 105° |
| 2026-02-17 15:39 | 24.87349 | 52.99522 | 29777 ft | 457 kts | 105° |
| 2026-02-17 15:40 | 24.86514 | 53.02913 | 30082 ft | 459 kts | 105° |
| 2026-02-17 15:40 | 24.85675 | 53.06311 | 30377 ft | 460 kts | 105° |
| 2026-02-17 15:40 | 24.84836 | 53.09710 | 30648 ft | 462 kts | 105° |
| 2026-02-17 15:40 | 24.83993 | 53.13134 | 30905 ft | 464 kts | 105° |
| 2026-02-17 15:41 | 24.83150 | 53.16569 | 31159 ft | 466 kts | 105° |
| 2026-02-17 15:41 | 24.82306 | 53.20008 | 31513 ft | 465 kts | 105° |
| 2026-02-17 15:41 | 24.81459 | 53.23444 | 31882 ft | 464 kts | 105° |
| 2026-02-17 15:41 | 24.80612 | 53.26863 | 32245 ft | 464 kts | 105° |
| 2026-02-17 15:42 | 24.79760 | 53.30296 | 32609 ft | 464 kts | 105° |
| 2026-02-17 15:42 | 24.78915 | 53.33720 | 32949 ft | 464 kts | 105° |
| 2026-02-17 15:43 | 24.76413 | 53.43834 | 33059 ft | 452 kts | 105° |
| 2026-02-17 15:43 | 24.74749 | 53.50492 | 33057 ft | 451 kts | 105° |
| 2026-02-17 15:44 | 24.73094 | 53.57133 | 33053 ft | 450 kts | 105° |
| 2026-02-17 15:44 | 24.71447 | 53.63768 | 33054 ft | 450 kts | 105° |
| 2026-02-17 15:45 | 24.69791 | 53.70398 | 33052 ft | 449 kts | 105° |
| 2026-02-17 15:45 | 24.68119 | 53.77036 | 33053 ft | 449 kts | 105° |
| 2026-02-17 15:46 | 24.66465 | 53.83611 | 33054 ft | 449 kts | 105° |
| 2026-02-17 15:46 | 24.64806 | 53.90225 | 33048 ft | 449 kts | 105° |
| 2026-02-17 15:47 | 24.62391 | 54.00165 | 33048 ft | 448 kts | 103° |
| 2026-02-17 15:47 | 24.60951 | 54.06821 | 33056 ft | 448 kts | 103° |
| 2026-02-17 15:48 | 24.59519 | 54.13487 | 33055 ft | 447 kts | 103° |
| 2026-02-17 15:48 | 24.58052 | 54.20131 | 33055 ft | 447 kts | 103° |
| 2026-02-17 15:49 | 24.56571 | 54.26730 | 33060 ft | 447 kts | 103° |
| 2026-02-17 15:49 | 24.55084 | 54.33364 | 33050 ft | 447 kts | 103° |
| 2026-02-17 15:50 | 24.53627 | 54.39998 | 33061 ft | 447 kts | 102° |
| 2026-02-17 15:51 | 24.51792 | 54.50032 | 33063 ft | 447 kts | 102° |
| 2026-02-17 15:51 | 24.49545 | 54.56362 | 33026 ft | 447 kts | 121° |
| 2026-02-17 15:52 | 24.46296 | 54.62197 | 33027 ft | 448 kts | 121° |
| 2026-02-17 15:52 | 24.43042 | 54.68036 | 33026 ft | 448 kts | 121° |
| 2026-02-17 15:53 | 24.39750 | 54.73789 | 33024 ft | 448 kts | 122° |
| 2026-02-17 15:53 | 24.36388 | 54.79553 | 33028 ft | 449 kts | 122° |
| 2026-02-17 15:54 | 24.33016 | 54.85327 | 33029 ft | 449 kts | 122° |
| 2026-02-17 15:54 | 24.27975 | 54.93999 | 33034 ft | 450 kts | 121° |
| 2026-02-17 15:55 | 24.24623 | 54.99779 | 33040 ft | 450 kts | 122° |
| 2026-02-17 15:55 | 24.21258 | 55.05562 | 33036 ft | 450 kts | 122° |
| 2026-02-17 15:56 | 24.17885 | 55.11345 | 33035 ft | 451 kts | 122° |
| 2026-02-17 15:56 | 24.14510 | 55.17131 | 33036 ft | 451 kts | 121° |
| 2026-02-17 15:57 | 24.11123 | 55.22922 | 33034 ft | 451 kts | 122° |
| 2026-02-17 15:57 | 24.07756 | 55.28664 | 33038 ft | 451 kts | 122° |
| 2026-02-17 15:58 | 24.04671 | 55.34618 | 33035 ft | 450 kts | 111° |
| 2026-02-17 15:59 | 24.01247 | 55.44193 | 33030 ft | 450 kts | 110° |
| 2026-02-17 15:59 | 23.98943 | 55.50566 | 33036 ft | 451 kts | 110° |
| 2026-02-17 16:00 | 23.96620 | 55.56945 | 33026 ft | 451 kts | 113° |
| 2026-02-17 16:00 | 23.93803 | 55.63089 | 33032 ft | 452 kts | 116° |
| 2026-02-17 16:01 | 23.90941 | 55.69212 | 33035 ft | 453 kts | 116° |
| 2026-02-17 16:01 | 23.88096 | 55.75313 | 33036 ft | 453 kts | 116° |
| 2026-02-17 16:02 | 23.85224 | 55.81455 | 33047 ft | 454 kts | 116° |
| 2026-02-17 16:02 | 23.80907 | 55.90656 | 33045 ft | 454 kts | 116° |
| 2026-02-17 16:03 | 23.78021 | 55.96800 | 33051 ft | 454 kts | 116° |
| 2026-02-17 16:03 | 23.75143 | 56.02931 | 32861 ft | 453 kts | 116° |
| 2026-02-17 16:04 | 23.73707 | 56.05993 | 32611 ft | 451 kts | 115° |
| 2026-02-17 16:04 | 23.72276 | 56.09035 | 32366 ft | 450 kts | 115° |
| 2026-02-17 16:04 | 23.70847 | 56.12062 | 32134 ft | 447 kts | 115° |
| 2026-02-17 16:04 | 23.69423 | 56.15071 | 31891 ft | 445 kts | 115° |
| 2026-02-17 16:05 | 23.68007 | 56.18068 | 31636 ft | 444 kts | 115° |
| 2026-02-17 16:05 | 23.66613 | 56.21022 | 31411 ft | 442 kts | 116° |
| 2026-02-17 16:05 | 23.65210 | 56.23993 | 31185 ft | 439 kts | 116° |
| 2026-02-17 16:05 | 23.63814 | 56.26946 | 30946 ft | 436 kts | 115° |
| 2026-02-17 16:06 | 23.62426 | 56.29882 | 30712 ft | 433 kts | 114° |
| 2026-02-17 16:06 | 23.61496 | 56.31848 | 30575 ft | 432 kts | 114° |
| 2026-02-17 16:06 | 23.58764 | 56.37617 | 30107 ft | 429 kts | 116° |
| 2026-02-17 16:07 | 23.57395 | 56.40504 | 29853 ft | 428 kts | 114° |
| 2026-02-17 16:07 | 23.56029 | 56.43382 | 29594 ft | 427 kts | 113° |
| 2026-02-17 16:07 | 23.54668 | 56.46250 | 29330 ft | 425 kts | 115° |
| 2026-02-17 16:07 | 23.53311 | 56.49108 | 29066 ft | 424 kts | 114° |
| 2026-02-17 16:08 | 23.51958 | 56.51963 | 28809 ft | 423 kts | 115° |
| 2026-02-17 16:08 | 23.49285 | 56.57610 | 28091 ft | 416 kts | 115° |
| 2026-02-17 16:08 | 23.47958 | 56.60404 | 27630 ft | 414 kts | 115° |
| 2026-02-17 16:09 | 23.46635 | 56.63186 | 27174 ft | 413 kts | 115° |
| 2026-02-17 16:09 | 23.45316 | 56.65956 | 26733 ft | 411 kts | 116° |
| 2026-02-17 16:09 | 23.43994 | 56.68721 | 26296 ft | 410 kts | 114° |
| 2026-02-17 16:09 | 23.42681 | 56.71477 | 25857 ft | 410 kts | 114° |
| 2026-02-17 16:10 | 23.41373 | 56.74230 | 25440 ft | 409 kts | 115° |
| 2026-02-17 16:10 | 23.40066 | 56.76980 | 25002 ft | 409 kts | 114° |
| 2026-02-17 16:10 | 23.37466 | 56.82434 | 24109 ft | 408 kts | 114° |
| 2026-02-17 16:11 | 23.36173 | 56.85186 | 23656 ft | 408 kts | 112° |
| 2026-02-17 16:11 | 23.35283 | 56.88103 | 23135 ft | 404 kts | 99° |
| 2026-02-17 16:11 | 23.35004 | 56.91103 | 22671 ft | 397 kts | 86° |
| 2026-02-17 16:11 | 23.35305 | 56.94059 | 22202 ft | 391 kts | 75° |
| 2026-02-17 16:12 | 23.35850 | 56.96954 | 21738 ft | 388 kts | 75° |
| 2026-02-17 16:12 | 23.36382 | 56.99828 | 21260 ft | 386 kts | 75° |
| 2026-02-17 16:12 | 23.36907 | 57.02688 | 20784 ft | 384 kts | 75° |
| 2026-02-17 16:12 | 23.37429 | 57.05523 | 20412 ft | 379 kts | 74° |
| 2026-02-17 16:13 | 23.37964 | 57.08331 | 19966 ft | 376 kts | 73° |
| 2026-02-17 16:13 | 23.38549 | 57.11086 | 19614 ft | 370 kts | 71° |
| 2026-02-17 16:13 | 23.39162 | 57.13794 | 19191 ft | 367 kts | 71° |
| 2026-02-17 16:13 | 23.39782 | 57.16471 | 18784 ft | 362 kts | 70° |
| 2026-02-17 16:14 | 23.40389 | 57.19101 | 18196 ft | 354 kts | 70° |
| 2026-02-17 16:14 | 23.40969 | 57.21653 | 17786 ft | 339 kts | 71° |
| 2026-02-17 16:14 | 23.42064 | 57.26545 | 17053 ft | 329 kts | 71° |
| 2026-02-17 16:15 | 23.42603 | 57.28953 | 16687 ft | 326 kts | 72° |
| 2026-02-17 16:15 | 23.43132 | 57.31317 | 16327 ft | 325 kts | 72° |
| 2026-02-17 16:15 | 23.43666 | 57.33709 | 15968 ft | 324 kts | 72° |
| 2026-02-17 16:15 | 23.44195 | 57.36087 | 15613 ft | 323 kts | 72° |
| 2026-02-17 16:16 | 23.44723 | 57.38460 | 15254 ft | 322 kts | 73° |
| 2026-02-17 16:16 | 23.45249 | 57.40828 | 14891 ft | 320 kts | 73° |
| 2026-02-17 16:16 | 23.45771 | 57.43184 | 14534 ft | 319 kts | 74° |
| 2026-02-17 16:16 | 23.46291 | 57.45536 | 14166 ft | 318 kts | 74° |
| 2026-02-17 16:17 | 23.46806 | 57.47874 | 13809 ft | 317 kts | 75° |
| 2026-02-17 16:17 | 23.47317 | 57.50203 | 13434 ft | 315 kts | 75° |
| 2026-02-17 16:17 | 23.47818 | 57.52487 | 13139 ft | 310 kts | 74° |
| 2026-02-17 16:17 | 23.48289 | 57.54739 | 12955 ft | 302 kts | 79° |
| 2026-02-17 16:18 | 23.48401 | 57.57015 | 12686 ft | 299 kts | 87° |
| 2026-02-17 16:18 | 23.48406 | 57.59273 | 12345 ft | 297 kts | 87° |
| 2026-02-17 16:18 | 23.48420 | 57.63766 | 11586 ft | 296 kts | 86° |
| 2026-02-17 16:19 | 23.48429 | 57.65997 | 11269 ft | 294 kts | 86° |
| 2026-02-17 16:19 | 23.48439 | 57.68220 | 10908 ft | 293 kts | 86° |